Rolldock Sun — PBMG — position and weather

sailwx.info

Track history (hours):
 
Tides and Currents Weather Stations Pressure Air Temp Water Temp Dewpoint Dewpoint Depression Visibility Wind Speed Wind Dir Waves Ship Positions

Rolldock Sun

Last reported at 2018-May-20 14:54 UTC. Time now 2018-Jul-19 11:51 UTC.
Position N 01°26' E 103°12'.
Warning: this ship's position is 59 days out of date.

Length 140 m; draft 5.1 m.

Type: Cargo ship. MMSI: 244615929.

Date/timePositionNaut miles runAvg speedWind from/ knotsBaromVisibWave heightAir tempDewpointWater temp
2018-May-20 14:54N 01°26' E 103°12'816.8
2018-May-20 14:25N 01°20' E 103°18'817.2
2018-May-20 13:58N 01°15' E 103°24'817.0
2018-May-20 13:30N 01°13' E 103°31'918.1
2018-May-20 13:00N 01°11' E 103°40'714.1
2018-May-20 12:31N 01°10' E 103°47'714.1
2018-May-20 12:00N 01°14' E 103°53'2 3.4
2018-May-20 11:30N 01°16' E 103°53'0 0.0
2018-May-20 10:51N 01°16' E 103°53'0 0.1
2018-May-20 10:30N 01°16' E 103°53'0 0.0
2018-May-20 10:00N 01°16' E 103°53'0 0.0
2018-May-20 09:29N 01°16' E 103°53'0 0.0
2018-May-20 09:00N 01°16' E 103°53'0 0.0
2018-May-20 08:30N 01°16' E 103°53'0 0.0
2018-May-20 07:57N 01°16' E 103°53'0 0.0
2018-May-20 07:29N 01°16' E 103°53'0 0.0
2018-May-20 07:00N 01°16' E 103°53'0 0.1
2018-May-20 06:29N 01°16' E 103°53'0 0.0
2018-May-20 06:00N 01°16' E 103°53'0 0.0
2018-May-20 05:30N 01°16' E 103°53'0 0.0
2018-May-20 05:00N 01°16' E 103°53'0 0.0
2018-May-20 04:26N 01°16' E 103°53'0 0.0
2018-May-20 03:49N 01°16' E 103°53'0 0.1
2018-May-20 03:30N 01°16' E 103°53'0 0.1
2018-May-20 02:44N 01°16' E 103°53'0 0.0
2018-May-20 02:23N 01°16' E 103°53'0 0.0
2018-May-20 02:00N 01°16' E 103°53'0 0.0
2018-May-20 01:24N 01°16' E 103°53'0 0.0
2018-May-20 01:00N 01°16' E 103°53'0 0.0
2018-May-20 00:24N 01°16' E 103°53'0 0.0
2018-May-19 23:58N 01°16' E 103°53'0 0.0
2018-May-19 23:22N 01°16' E 103°53'0 0.0
2018-May-19 23:00N 01°16' E 103°53'0 0.9
2018-May-19 22:30N 01°16' E 103°53'3 6.2
2018-May-19 22:00N 01°14' E 103°56'611.4
2018-May-19 21:30N 01°16' E 104°02'611.5
2018-May-19 20:57N 01°17' E 104°08'611.8
2018-May-19 20:29N 01°18' E 104°13'611.4
2018-May-19 19:58N 01°19' E 104°19'612.2
2018-May-19 19:28N 01°23' E 104°24'612.5
2018-May-19 19:00N 01°27' E 104°28'  
2018-May-15 10:06N 23°33' E 118°11'314.9
2018-May-15 09:53N 23°35' E 118°14'615.2
2018-May-15 09:28N 23°40' E 118°19'815.3
2018-May-15 08:57N 23°45' E 118°25'715.4
2018-May-15 08:30N 23°48' E 118°31'1015.4
2018-May-15 07:50N 23°54' E 118°41'515.7
2018-May-15 07:31N 23°57' E 118°45'815.8
2018-May-15 07:01N 24°03' E 118°51'815.9
2018-May-15 06:30N 24°09' E 118°58'816.2
2018-May-15 06:01N 24°14' E 119°04'1016.2
2018-May-15 05:23N 24°22' E 119°11'615.8
2018-May-15 05:00N 24°25' E 119°16'42914.1
2018-May-13 22:30N 30°51' E 122°48'714.7
2018-May-13 22:00N 30°56' E 122°41'714.7
2018-May-13 21:31N 30°59' E 122°34'713.7
2018-May-13 20:58N 31°00' E 122°26'714.5
2018-May-13 20:28N 31°02' E 122°17'612.2
2018-May-13 20:00N 31°03' E 122°11'713.0
2018-May-13 19:27N 31°04' E 122°03'613.5
2018-May-13 19:00N 31°07' E 121°56'815.0
2018-May-13 18:30N 31°12' E 121°50'714.6
2018-May-13 18:00N 31°17' E 121°44'1310.9
2018-May-13 16:45N 31°25' E 121°31'2 8.9
2018-May-13 16:30N 31°26' E 121°29'4 8.5
2018-May-13 16:00N 31°30' E 121°26'5 9.9
2018-May-13 15:30N 31°32' E 121°21'510.9
2018-May-13 15:00N 31°36' E 121°17'611.0
2018-May-13 14:30N 31°40' E 121°12'611.7
2018-May-13 14:00N 31°44' E 121°07'712.6
2018-May-13 13:29N 31°47' E 120°60'611.3
2018-May-13 13:00N 31°50' E 120°54'  
2018-May-10 22:42N 31°46' E 121°02'414.2
2018-May-10 22:27N 31°45' E 121°06'3 5.8
2018-May-10 22:01N 31°43' E 121°08'0 0.0
2018-May-10 21:30N 31°43' E 121°08'0 0.0
2018-May-10 21:00N 31°43' E 121°08'0 0.0
2018-May-10 20:30N 31°43' E 121°08'0 0.1
2018-May-10 20:01N 31°43' E 121°08'0 0.0
2018-May-10 19:30N 31°43' E 121°08'0 0.0
2018-May-10 19:00N 31°43' E 121°08'0 0.1
2018-May-10 18:30N 31°43' E 121°08'0 0.2
2018-May-10 18:01N 31°44' E 121°08'0 0.0
2018-May-10 17:29N 31°44' E 121°08'0 0.1
2018-May-10 17:00N 31°44' E 121°08'0 0.0
2018-May-10 16:30N 31°44' E 121°08'0 0.1
2018-May-10 16:00N 31°44' E 121°08'0 0.1
2018-May-10 15:31N 31°44' E 121°08'0 0.0
2018-May-10 14:59N 31°44' E 121°08'  
Track history (hours):
 
Tides and Currents Weather Stations Pressure Air Temp Water Temp Dewpoint Dewpoint Depression Visibility Wind Speed Wind Dir Waves Ship Positions

Rolldock Sun

Last reported at 2018-May-20 14:54 UTC. Time now 2018-Jul-19 11:51 UTC.
Position N 01°26' E 103°12'.
Warning: this ship's position is 59 days out of date.

Length 140 m; draft 5.1 m.

Type: Cargo ship. MMSI: 244615929.

Date/timePositionNaut miles runAvg speedWind from/ knotsBaromVisibWave heightAir tempDewpointWater temp
2018-May-20 14:54N 01°26' E 103°12'816.8
2018-May-20 14:25N 01°20' E 103°18'817.2
2018-May-20 13:58N 01°15' E 103°24'817.0
2018-May-20 13:30N 01°13' E 103°31'918.1
2018-May-20 13:00N 01°11' E 103°40'714.1
2018-May-20 12:31N 01°10' E 103°47'714.1
2018-May-20 12:00N 01°14' E 103°53'2 3.4
2018-May-20 11:30N 01°16' E 103°53'0 0.0
2018-May-20 10:51N 01°16' E 103°53'0 0.1
2018-May-20 10:30N 01°16' E 103°53'0 0.0
2018-May-20 10:00N 01°16' E 103°53'0 0.0
2018-May-20 09:29N 01°16' E 103°53'0 0.0
2018-May-20 09:00N 01°16' E 103°53'0 0.0
2018-May-20 08:30N 01°16' E 103°53'0 0.0
2018-May-20 07:57N 01°16' E 103°53'0 0.0
2018-May-20 07:29N 01°16' E 103°53'0 0.0
2018-May-20 07:00N 01°16' E 103°53'0 0.1
2018-May-20 06:29N 01°16' E 103°53'0 0.0
2018-May-20 06:00N 01°16' E 103°53'0 0.0
2018-May-20 05:30N 01°16' E 103°53'0 0.0
2018-May-20 05:00N 01°16' E 103°53'0 0.0
2018-May-20 04:26N 01°16' E 103°53'0 0.0
2018-May-20 03:49N 01°16' E 103°53'0 0.1
2018-May-20 03:30N 01°16' E 103°53'0 0.1
2018-May-20 02:44N 01°16' E 103°53'0 0.0
2018-May-20 02:23N 01°16' E 103°53'0 0.0
2018-May-20 02:00N 01°16' E 103°53'0 0.0
2018-May-20 01:24N 01°16' E 103°53'0 0.0
2018-May-20 01:00N 01°16' E 103°53'0 0.0
2018-May-20 00:24N 01°16' E 103°53'0 0.0
2018-May-19 23:58N 01°16' E 103°53'0 0.0
2018-May-19 23:22N 01°16' E 103°53'0 0.0
2018-May-19 23:00N 01°16' E 103°53'0 0.9
2018-May-19 22:30N 01°16' E 103°53'3 6.2
2018-May-19 22:00N 01°14' E 103°56'611.4
2018-May-19 21:30N 01°16' E 104°02'611.5
2018-May-19 20:57N 01°17' E 104°08'611.8
2018-May-19 20:29N 01°18' E 104°13'611.4
2018-May-19 19:58N 01°19' E 104°19'612.2
2018-May-19 19:28N 01°23' E 104°24'612.5
2018-May-19 19:00N 01°27' E 104°28'  
2018-May-15 10:06N 23°33' E 118°11'314.9
2018-May-15 09:53N 23°35' E 118°14'615.2
2018-May-15 09:28N 23°40' E 118°19'815.3
2018-May-15 08:57N 23°45' E 118°25'715.4
2018-May-15 08:30N 23°48' E 118°31'1015.4
2018-May-15 07:50N 23°54' E 118°41'515.7
2018-May-15 07:31N 23°57' E 118°45'815.8
2018-May-15 07:01N 24°03' E 118°51'815.9
2018-May-15 06:30N 24°09' E 118°58'816.2
2018-May-15 06:01N 24°14' E 119°04'1016.2
2018-May-15 05:23N 24°22' E 119°11'615.8
2018-May-15 05:00N 24°25' E 119°16'42914.1
2018-May-13 22:30N 30°51' E 122°48'714.7
2018-May-13 22:00N 30°56' E 122°41'714.7
2018-May-13 21:31N 30°59' E 122°34'713.7
2018-May-13 20:58N 31°00' E 122°26'714.5
2018-May-13 20:28N 31°02' E 122°17'612.2
2018-May-13 20:00N 31°03' E 122°11'713.0
2018-May-13 19:27N 31°04' E 122°03'613.5
2018-May-13 19:00N 31°07' E 121°56'815.0
2018-May-13 18:30N 31°12' E 121°50'714.6
2018-May-13 18:00N 31°17' E 121°44'1310.9
2018-May-13 16:45N 31°25' E 121°31'2 8.9
2018-May-13 16:30N 31°26' E 121°29'4 8.5
2018-May-13 16:00N 31°30' E 121°26'5 9.9
2018-May-13 15:30N 31°32' E 121°21'510.9
2018-May-13 15:00N 31°36' E 121°17'611.0
2018-May-13 14:30N 31°40' E 121°12'611.7
2018-May-13 14:00N 31°44' E 121°07'712.6
2018-May-13 13:29N 31°47' E 120°60'611.3
2018-May-13 13:00N 31°50' E 120°54'  
2018-May-10 22:42N 31°46' E 121°02'414.2
2018-May-10 22:27N 31°45' E 121°06'3 5.8
2018-May-10 22:01N 31°43' E 121°08'0 0.0
2018-May-10 21:30N 31°43' E 121°08'0 0.0
2018-May-10 21:00N 31°43' E 121°08'0 0.0
2018-May-10 20:30N 31°43' E 121°08'0 0.1
2018-May-10 20:01N 31°43' E 121°08'0 0.0
2018-May-10 19:30N 31°43' E 121°08'0 0.0
2018-May-10 19:00N 31°43' E 121°08'0 0.1
2018-May-10 18:30N 31°43' E 121°08'0 0.2
2018-May-10 18:01N 31°44' E 121°08'0 0.0
2018-May-10 17:29N 31°44' E 121°08'0 0.1
2018-May-10 17:00N 31°44' E 121°08'0 0.0
2018-May-10 16:30N 31°44' E 121°08'0 0.1
2018-May-10 16:00N 31°44' E 121°08'0 0.1
2018-May-10 15:31N 31°44' E 121°08'0 0.0
2018-May-10 14:59N 31°44' E 121°08'  

Dump ship's entire track history